Time;durP1;ratioP1;P1;durP2;ratioP2;P2;SDS_P1;SDS_P2;PMS_P1;PMS_P2;Temp;Humidity;BMP_temperature;BMP_pressure;BME280_temperature;BME280_humidity;BME280_pressure;Samples;Min_cycle;Max_cycle;Signal;HPM_P1;HPM_P2
2020/12/08 00:02:05;;;;;;;30.50;21.77;;;4.50;99.90;;;;;;5101274;28;20226;-63
2020/12/08 00:04:31;;;;;;;30.50;22.63;;;4.50;99.90;;;;;;5101157;28;20622;-62
2020/12/08 00:06:56;;;;;;;30.27;20.13;;;4.60;99.90;;;;;;5100958;28;20184;-62
2020/12/08 00:09:22;;;;;;;30.30;20.70;;;4.60;99.90;;;;;;5101186;28;20209;-62
2020/12/08 00:11:47;;;;;;;32.23;20.57;;;4.60;99.90;;;;;;5101010;28;20192;-63
2020/12/08 00:14:14;;;;;;;28.30;18.97;;;4.60;99.90;;;;;;5100797;28;20261;-63
2020/12/08 00:16:40;;;;;;;30.07;19.97;;;4.70;99.90;;;;;;5101354;28;20168;-63
2020/12/08 00:19:06;;;;;;;31.17;21.73;;;4.70;99.90;;;;;;5101002;28;20244;-63
2020/12/08 00:21:31;;;;;;;30.87;20.80;;;4.70;99.90;;;;;;5101511;28;20344;-63
2020/12/08 00:23:57;;;;;;;30.83;19.97;;;4.80;99.90;;;;;;5101353;28;20181;-63
2020/12/08 00:26:23;;;;;;;27.43;20.97;;;4.70;99.90;;;;;;5101707;28;20251;-63
2020/12/08 00:28:48;;;;;;;30.90;19.70;;;4.80;99.90;;;;;;5100723;28;20667;-62
2020/12/08 00:31:14;;;;;;;32.67;23.10;;;4.80;99.90;;;;;;5100676;28;20290;-63
2020/12/08 00:33:39;;;;;;;30.10;21.87;;;4.80;99.90;;;;;;5099620;28;20220;-63
2020/12/08 00:36:05;;;;;;;33.87;21.60;;;4.80;99.90;;;;;;5099224;28;20242;-63
2020/12/08 00:38:31;;;;;;;30.80;21.90;;;4.80;99.90;;;;;;5100746;28;20243;-64
2020/12/08 00:40:56;;;;;;;30.50;19.57;;;4.80;99.90;;;;;;5100558;28;20278;-70
2020/12/08 00:43:22;;;;;;;31.37;21.33;;;4.90;99.90;;;;;;5100022;28;20171;-70
2020/12/08 00:45:47;;;;;;;30.60;20.67;;;4.90;99.90;;;;;;5100379;28;20602;-70
2020/12/08 00:48:13;;;;;;;30.30;20.70;;;4.90;99.90;;;;;;5100544;28;20179;-70
2020/12/08 00:50:38;;;;;;;30.23;20.80;;;5.00;99.90;;;;;;5100339;28;20591;-68
2020/12/08 00:53:04;;;;;;;27.87;19.43;;;4.90;99.90;;;;;;5100889;28;20175;-71
2020/12/08 00:55:29;;;;;;;25.23;19.13;;;4.90;99.90;;;;;;5100493;28;20206;-70
2020/12/08 00:57:55;;;;;;;29.23;20.43;;;4.90;99.90;;;;;;5100567;28;20275;-70
2020/12/08 01:00:20;;;;;;;27.20;20.43;;;5.00;99.90;;;;;;5100189;28;20550;-71
2020/12/08 01:02:47;;;;;;;30.73;20.33;;;5.00;99.90;;;;;;5100231;28;20555;-69
2020/12/08 01:05:12;;;;;;;28.17;20.00;;;5.00;99.90;;;;;;5100977;28;20194;-71
2020/12/08 01:07:39;;;;;;;29.40;20.30;;;5.00;99.90;;;;;;5100264;28;20180;-70
2020/12/08 01:10:06;;;;;;;29.03;19.07;;;5.00;99.90;;;;;;5100317;28;20196;-70
2020/12/08 01:12:31;;;;;;;31.37;22.13;;;5.00;99.90;;;;;;5099533;28;20215;-70
2020/12/08 01:14:57;;;;;;;31.80;21.27;;;5.10;99.90;;;;;;5099812;28;20577;-69
2020/12/08 01:17:22;;;;;;;32.37;21.20;;;5.10;99.90;;;;;;5099859;28;20274;-70
2020/12/08 01:19:48;;;;;;;29.73;21.10;;;5.10;99.90;;;;;;5100157;28;20163;-69
2020/12/08 01:22:13;;;;;;;29.97;20.53;;;5.10;99.90;;;;;;5099691;28;20216;-69
2020/12/08 01:24:39;;;;;;;28.43;20.20;;;5.10;99.90;;;;;;5100725;28;20177;-70
2020/12/08 01:27:04;;;;;;;30.20;21.77;;;5.10;99.90;;;;;;5100195;28;20180;-69
2020/12/08 01:29:29;;;;;;;27.97;19.90;;;5.10;99.90;;;;;;5099827;28;20668;-69
2020/12/08 01:31:55;;;;;;;30.33;21.50;;;5.10;99.90;;;;;;5100643;28;20216;-70
2020/12/08 01:34:20;;;;;;;29.87;19.90;;;5.10;99.90;;;;;;5099676;28;20181;-69
2020/12/08 01:36:49;;;;;;;30.13;19.83;;;5.10;99.90;;;;;;5099876;28;20256;-70
2020/12/08 01:39:14;;;;;;;27.87;19.77;;;5.10;99.90;;;;;;5099758;28;20163;-70
2020/12/08 01:41:40;;;;;;;30.10;20.77;;;5.10;99.90;;;;;;5099216;28;20193;-70
2020/12/08 01:44:05;;;;;;;28.03;18.70;;;5.10;99.90;;;;;;5099217;28;20181;-70
2020/12/08 01:46:33;;;;;;;31.40;20.43;;;5.10;99.90;;;;;;5099542;28;20528;-69
2020/12/08 01:48:58;;;;;;;28.40;20.47;;;5.10;99.90;;;;;;5098710;27;20179;-69
2020/12/08 01:51:24;;;;;;;28.33;19.73;;;5.10;99.90;;;;;;5099031;28;20913;-69
2020/12/08 01:53:51;;;;;;;30.93;21.53;;;5.10;99.90;;;;;;5099004;28;20184;-70
2020/12/08 01:56:17;;;;;;;28.63;20.87;;;5.10;99.90;;;;;;5099487;28;20171;-68
2020/12/08 01:58:42;;;;;;;32.27;22.17;;;5.10;99.90;;;;;;5099494;28;20195;-68
2020/12/08 02:01:12;;;;;;;30.17;22.03;;;5.10;99.90;;;;;;5098243;28;20208;-70
2020/12/08 02:03:38;;;;;;;29.93;21.33;;;5.10;99.90;;;;;;5099483;28;20573;-70
2020/12/08 02:06:03;;;;;;;33.07;22.47;;;5.20;99.90;;;;;;5100456;28;20221;-71
2020/12/08 02:08:34;;;;;;;27.80;18.10;;;5.10;99.90;;;;;;5099163;28;20180;-69
2020/12/08 02:11:00;;;;;;;32.30;22.97;;;5.10;99.90;;;;;;5099017;28;20558;-69
2020/12/08 02:13:26;;;;;;;34.00;20.27;;;5.10;99.90;;;;;;5099455;28;20187;-69
2020/12/08 02:15:52;;;;;;;28.90;19.87;;;5.10;99.90;;;;;;5098939;28;20180;-68
2020/12/08 02:18:19;;;;;;;29.60;20.07;;;5.10;99.90;;;;;;5099106;28;20252;-69
2020/12/08 02:20:44;;;;;;;30.17;20.90;;;5.10;99.90;;;;;;5098792;28;20613;-69
2020/12/08 02:23:10;;;;;;;27.93;21.23;;;5.10;99.90;;;;;;5099839;28;20640;-69
2020/12/08 02:25:36;;;;;;;31.23;21.57;;;5.20;99.90;;;;;;5099018;28;20172;-67
2020/12/08 02:28:03;;;;;;;31.53;21.03;;;5.20;99.90;;;;;;5098666;28;20171;-68
2020/12/08 02:30:29;;;;;;;32.07;22.30;;;5.20;99.90;;;;;;5098578;28;20204;-69
2020/12/08 02:32:54;;;;;;;30.27;21.53;;;5.20;99.90;;;;;;5099209;28;20175;-69
2020/12/08 02:35:20;;;;;;;31.37;21.10;;;5.20;99.90;;;;;;5099016;28;20195;-69
2020/12/08 02:37:45;;;;;;;31.60;20.93;;;5.20;99.90;;;;;;5098850;28;20191;-70
2020/12/08 02:40:11;;;;;;;29.47;20.50;;;5.20;99.90;;;;;;5100888;28;20574;-69
2020/12/08 02:42:37;;;;;;;34.03;22.27;;;5.20;99.90;;;;;;5098790;28;20221;-69
2020/12/08 02:45:02;;;;;;;31.63;23.37;;;5.20;99.90;;;;;;5098744;28;20186;-69
2020/12/08 02:47:28;;;;;;;31.93;22.73;;;5.20;99.90;;;;;;5103632;28;20174;-69
2020/12/08 02:49:56;;;;;;;33.43;23.43;;;5.20;99.90;;;;;;5102609;28;20172;-68
2020/12/08 02:52:22;;;;;;;33.60;23.87;;;5.20;99.90;;;;;;5100667;28;20260;-69
2020/12/08 02:54:48;;;;;;;31.23;22.00;;;5.30;99.90;;;;;;5098650;28;20192;-69
2020/12/08 02:57:14;;;;;;;33.30;22.30;;;5.20;99.90;;;;;;5098269;28;20307;-69
2020/12/08 02:59:40;;;;;;;32.33;21.30;;;5.10;99.90;;;;;;5111731;28;20167;-69
2020/12/08 03:02:06;;;;;;;34.37;23.70;;;5.10;99.90;;;;;;5114526;28;20279;-69
2020/12/08 03:04:31;;;;;;;33.83;23.20;;;5.20;99.90;;;;;;5114664;28;20175;-69
2020/12/08 03:06:57;;;;;;;34.23;24.03;;;5.10;99.90;;;;;;5114723;28;20208;-70
2020/12/08 03:09:22;;;;;;;32.77;23.63;;;5.10;99.90;;;;;;5113394;28;20171;-69
2020/12/08 03:11:48;;;;;;;34.43;23.60;;;5.10;99.90;;;;;;5114446;28;20449;-68
2020/12/08 03:14:13;;;;;;;35.67;24.67;;;5.10;99.90;;;;;;5114566;28;20172;-68
2020/12/08 03:16:39;;;;;;;33.10;24.13;;;5.10;99.90;;;;;;5114161;28;20176;-68
2020/12/08 03:19:04;;;;;;;33.57;24.23;;;5.10;99.90;;;;;;5114572;28;20204;-69
2020/12/08 03:21:34;;;;;;;35.03;22.47;;;5.20;99.90;;;;;;5113930;28;20188;-68
2020/12/08 03:23:59;;;;;;;35.70;24.57;;;5.20;99.90;;;;;;5114478;28;20179;-69
2020/12/08 03:26:25;;;;;;;35.60;24.63;;;5.10;99.90;;;;;;5114219;28;20168;-69
2020/12/08 03:28:50;;;;;;;36.47;24.63;;;5.10;99.90;;;;;;5114211;28;20597;-69
2020/12/08 03:31:16;;;;;;;35.97;25.07;;;5.10;99.90;;;;;;5113476;28;20603;-68
2020/12/08 03:33:42;;;;;;;36.80;25.10;;;5.10;99.90;;;;;;5098160;28;20651;-68
2020/12/08 03:36:15;;;;;;;36.17;24.53;;;5.10;99.90;;;;;;5098867;28;20192;-66
2020/12/08 03:38:47;;;;;;;36.10;24.77;;;5.10;99.90;;;;;;5101529;28;20208;-66
2020/12/08 03:41:20;;;;;;;36.97;24.67;;;5.20;99.90;;;;;;5099967;28;20228;-66
2020/12/08 03:43:47;;;;;;;34.77;22.87;;;5.10;99.90;;;;;;5101166;28;20209;-67
2020/12/08 03:46:24;;;;;;;35.80;25.47;;;5.20;99.90;;;;;;5102002;28;20207;-66
2020/12/08 03:48:50;;;;;;;35.77;24.00;;;5.10;99.90;;;;;;5101405;28;20663;-65
2020/12/08 03:51:18;;;;;;;37.93;26.27;;;5.10;99.90;;;;;;5101081;28;20215;-66
2020/12/08 03:53:44;;;;;;;36.20;24.07;;;5.10;99.90;;;;;;5100954;28;20539;-66
2020/12/08 03:56:19;;;;;;;34.53;22.30;;;5.10;99.90;;;;;;5100535;28;20188;-66
2020/12/08 03:58:46;;;;;;;34.27;23.80;;;5.10;99.90;;;;;;5100913;28;20487;-65
2020/12/08 04:01:20;;;;;;;30.23;20.70;;;5.10;99.90;;;;;;5101130;28;20605;-66
2020/12/08 04:03:50;;;;;;;35.00;22.97;;;5.00;99.90;;;;;;5101477;28;20289;-65
2020/12/08 04:06:16;;;;;;;27.93;17.33;;;5.00;99.90;;;;;;5101383;28;20221;-66
2020/12/08 04:08:42;;;;;;;33.57;23.07;;;5.00;99.90;;;;;;5101323;28;20192;-67
2020/12/08 04:11:09;;;;;;;31.90;22.13;;;5.00;99.90;;;;;;5099357;28;20709;-66
2020/12/08 04:13:34;;;;;;;33.13;22.20;;;5.00;99.90;;;;;;5101349;28;20218;-66
2020/12/08 04:16:00;;;;;;;35.50;22.40;;;5.00;99.90;;;;;;5102747;28;20177;-67
2020/12/08 04:18:26;;;;;;;33.50;22.10;;;5.00;99.90;;;;;;5102334;28;20748;-66
2020/12/08 04:20:51;;;;;;;31.40;21.37;;;5.00;99.90;;;;;;5099731;28;20239;-62
2020/12/08 04:23:18;;;;;;;34.23;21.03;;;5.00;99.90;;;;;;5100366;28;20175;-62
2020/12/08 04:25:43;;;;;;;33.17;23.00;;;5.00;99.90;;;;;;5101314;28;20222;-62
2020/12/08 04:28:09;;;;;;;31.80;21.50;;;5.10;99.90;;;;;;5100319;28;20185;-63
2020/12/08 04:30:36;;;;;;;31.10;19.93;;;5.00;99.90;;;;;;5115663;22;20195;-65
2020/12/08 04:33:02;;;;;;;33.97;23.37;;;5.00;99.90;;;;;;5042481;28;20261;-66
2020/12/08 04:35:27;;;;;;;30.73;21.07;;;5.00;99.90;;;;;;5040167;28;20240;-67
2020/12/08 04:37:53;;;;;;;32.60;22.23;;;5.00;99.90;;;;;;5040232;28;20294;-64
2020/12/08 04:40:19;;;;;;;36.67;21.97;;;5.00;99.90;;;;;;5042348;28;20227;-64
2020/12/08 04:42:49;;;;;;;25.80;17.80;;;5.00;99.90;;;;;;5041491;28;20263;-65
2020/12/08 04:45:17;;;;;;;31.70;21.00;;;5.00;99.90;;;;;;5040515;28;20173;-65
2020/12/08 04:47:44;;;;;;;34.07;20.97;;;5.00;99.90;;;;;;5040888;28;20194;-64
2020/12/08 04:50:12;;;;;;;30.50;20.97;;;5.00;99.90;;;;;;5040092;28;20256;-65
2020/12/08 04:52:39;;;;;;;30.73;21.10;;;5.00;99.90;;;;;;5040193;28;20293;-66
2020/12/08 04:55:05;;;;;;;31.37;21.23;;;5.00;99.90;;;;;;5041188;28;20186;-67
2020/12/08 04:57:31;;;;;;;30.40;21.27;;;5.00;99.90;;;;;;5039435;28;20277;-67
2020/12/08 05:00:01;;;;;;;26.70;19.30;;;5.00;99.90;;;;;;5040910;28;20177;-67
2020/12/08 05:02:26;;;;;;;29.40;18.63;;;5.00;99.90;;;;;;5040558;28;20221;-65
2020/12/08 05:04:55;;;;;;;26.13;16.23;;;5.00;99.90;;;;;;5040005;28;20248;-66
2020/12/08 05:07:27;;;;;;;29.87;20.30;;;5.00;99.90;;;;;;5040360;28;20178;-65
2020/12/08 05:09:53;;;;;;;32.40;18.40;;;5.00;99.90;;;;;;5041327;28;20190;-65
2020/12/08 05:12:19;;;;;;;26.90;19.53;;;5.00;99.90;;;;;;5039815;28;20677;-67
2020/12/08 05:14:45;;;;;;;22.33;16.33;;;5.00;99.90;;;;;;5041943;28;20166;-67
2020/12/08 05:17:10;;;;;;;29.97;20.13;;;4.90;99.90;;;;;;5041578;28;20728;-67
2020/12/08 05:19:36;;;;;;;28.70;20.37;;;5.00;99.90;;;;;;5042374;28;20228;-67
2020/12/08 05:22:01;;;;;;;26.97;19.57;;;4.90;99.90;;;;;;5040757;28;20205;-67
2020/12/08 05:24:29;;;;;;;31.47;20.43;;;5.00;99.90;;;;;;5042270;28;20664;-66
2020/12/08 05:27:02;;;;;;;18.63;11.77;;;5.00;99.90;;;;;;5043043;28;20181;-68
2020/12/08 05:29:28;;;;;;;26.27;18.07;;;4.90;99.90;;;;;;5041390;28;20228;-67
2020/12/08 05:31:55;;;;;;;22.23;14.50;;;4.90;99.90;;;;;;5040619;28;20588;-67
2020/12/08 05:34:22;;;;;;;28.17;19.17;;;4.90;99.90;;;;;;5039918;28;20182;-66
2020/12/08 05:36:54;;;;;;;26.67;18.47;;;4.90;99.90;;;;;;5042942;28;20216;-66
2020/12/08 05:39:21;;;;;;;28.57;19.90;;;4.90;99.90;;;;;;5040676;28;20742;-67
2020/12/08 05:41:48;;;;;;;27.50;18.73;;;4.90;99.90;;;;;;5040460;28;20205;-66
2020/12/08 05:44:23;;;;;;;31.17;21.60;;;5.00;99.90;;;;;;5041761;28;20178;-68
2020/12/08 05:46:53;;;;;;;28.23;20.07;;;4.90;99.90;;;;;;5041579;28;20418;-67
2020/12/08 05:49:19;;;;;;;24.20;14.77;;;5.00;99.90;;;;;;5042394;28;20555;-67
2020/12/08 05:51:50;;;;;;;22.57;14.20;;;5.00;99.90;;;;;;5040292;28;20197;-65
2020/12/08 05:54:19;;;;;;;33.13;20.97;;;4.90;99.90;;;;;;5042113;28;20188;-66
2020/12/08 05:56:46;;;;;;;28.87;18.97;;;4.90;99.90;;;;;;5040844;28;20204;-66
2020/12/08 05:59:12;;;;;;;25.87;16.73;;;4.90;99.90;;;;;;5043026;28;20183;-66
2020/12/08 06:01:48;;;;;;;29.80;19.50;;;4.90;99.90;;;;;;5040210;28;20276;-67
2020/12/08 06:04:13;;;;;;;24.47;16.70;;;5.00;99.90;;;;;;5041135;28;21050;-66
2020/12/08 06:06:50;;;;;;;32.57;21.30;;;4.90;99.90;;;;;;5042485;28;20320;-66
2020/12/08 06:09:26;;;;;;;33.33;20.90;;;4.90;99.90;;;;;;5044965;28;20261;-66
2020/12/08 06:11:52;;;;;;;27.03;19.00;;;4.90;99.90;;;;;;5048669;28;20193;-69
2020/12/08 06:14:33;;;;;;;28.57;18.87;;;4.90;99.90;;;;;;5044384;28;20189;-70
2020/12/08 06:17:07;;;;;;;22.57;15.20;;;4.90;99.90;;;;;;5043696;28;20528;-70
2020/12/08 06:19:34;;;;;;;18.53;12.83;;;4.90;99.90;;;;;;5045222;28;20199;-70
2020/12/08 06:22:09;;;;;;;24.43;16.70;;;4.90;99.90;;;;;;5043125;28;20249;-70
2020/12/08 06:24:34;;;;;;;31.37;19.83;;;4.90;99.90;;;;;;5044984;28;20328;-70
2020/12/08 06:27:00;;;;;;;30.53;20.83;;;4.90;99.90;;;;;;5045398;28;20232;-70
2020/12/08 06:29:25;;;;;;;21.17;14.63;;;4.90;99.90;;;;;;5045833;28;20174;-68
2020/12/08 06:31:52;;;;;;;24.27;15.97;;;4.90;99.90;;;;;;5045086;28;20617;-68
2020/12/08 06:34:23;;;;;;;26.50;18.63;;;4.90;99.90;;;;;;5051582;28;20181;-68
2020/12/08 06:36:48;;;;;;;25.07;15.77;;;4.90;99.90;;;;;;5041110;28;20264;-69
2020/12/08 06:39:14;;;;;;;32.40;19.90;;;4.90;99.90;;;;;;5057853;28;20212;-68
2020/12/08 06:41:41;;;;;;;22.13;15.20;;;4.90;99.90;;;;;;5059580;28;20186;-69
2020/12/08 06:44:21;;;;;;;28.37;19.03;;;4.90;99.90;;;;;;5059811;28;20777;-69
2020/12/08 06:46:54;;;;;;;24.97;16.37;;;4.90;99.90;;;;;;5059774;28;20189;-69
2020/12/08 06:49:20;;;;;;;28.80;18.20;;;4.90;99.90;;;;;;5076625;28;20597;-69
2020/12/08 06:51:56;;;;;;;21.60;15.53;;;4.90;99.90;;;;;;5078741;28;20189;-69
2020/12/08 06:54:22;;;;;;;27.80;18.83;;;4.90;99.90;;;;;;5078883;28;20197;-69
2020/12/08 06:56:48;;;;;;;31.20;20.77;;;4.90;99.90;;;;;;5073243;28;20189;-68
2020/12/08 06:59:23;;;;;;;33.00;21.27;;;4.90;99.90;;;;;;5054561;28;20185;-68
2020/12/08 07:01:53;;;;;;;21.33;13.87;;;4.90;99.90;;;;;;5061144;28;20326;-67
2020/12/08 07:04:20;;;;;;;25.43;17.03;;;4.90;99.90;;;;;;5074404;28;20201;-66
2020/12/08 07:06:46;;;;;;;30.23;18.27;;;4.90;99.90;;;;;;5071825;28;20184;-66
2020/12/08 07:09:12;;;;;;;28.40;18.47;;;4.90;99.90;;;;;;5072344;28;20272;-66
2020/12/08 07:11:37;;;;;;;30.17;19.80;;;4.90;99.90;;;;;;5074076;28;20687;-66
2020/12/08 07:14:06;;;;;;;24.40;14.80;;;4.90;99.90;;;;;;5072430;28;20541;-67
2020/12/08 07:16:34;;;;;;;29.70;20.03;;;4.80;99.90;;;;;;5074884;28;20177;-66
2020/12/08 07:19:00;;;;;;;29.37;18.83;;;4.80;99.90;;;;;;5072998;28;20220;-67
2020/12/08 07:21:26;;;;;;;27.57;18.63;;;4.80;99.90;;;;;;5073389;28;20246;-67
2020/12/08 07:23:56;;;;;;;22.50;16.70;;;4.80;99.90;;;;;;5073085;28;20185;-67
2020/12/08 07:26:29;;;;;;;25.37;18.90;;;4.80;99.90;;;;;;5074392;28;20589;-68
2020/12/08 07:28:57;;;;;;;28.20;19.43;;;4.80;99.90;;;;;;5062057;28;20185;-68
2020/12/08 07:31:25;;;;;;;24.90;17.00;;;4.80;99.90;;;;;;5068485;28;20254;-68
2020/12/08 07:33:52;;;;;;;24.00;17.07;;;4.80;99.90;;;;;;5078078;28;20565;-68
2020/12/08 07:36:23;;;;;;;28.20;19.73;;;4.80;99.90;;;;;;5072708;28;20407;-67
2020/12/08 07:38:51;;;;;;;20.47;13.07;;;4.80;99.90;;;;;;5039117;28;20205;-68
2020/12/08 07:41:21;;;;;;;29.63;19.63;;;4.70;99.90;;;;;;5056677;28;20193;-68
2020/12/08 07:43:48;;;;;;;29.77;20.03;;;4.70;99.90;;;;;;5070242;28;20657;-68
2020/12/08 07:46:20;;;;;;;25.33;16.93;;;4.80;99.90;;;;;;5075625;28;20175;-67
2020/12/08 07:48:46;;;;;;;25.43;15.10;;;4.80;99.90;;;;;;5084566;28;20474;-68
2020/12/08 07:51:11;;;;;;;26.93;17.83;;;4.80;99.90;;;;;;5056442;28;20376;-64
2020/12/08 07:53:37;;;;;;;23.13;14.47;;;4.80;99.90;;;;;;5058614;28;20224;-64
2020/12/08 07:56:03;;;;;;;31.43;20.67;;;4.80;99.90;;;;;;5054144;28;20174;-65
2020/12/08 07:58:29;;;;;;;19.50;13.20;;;4.80;99.90;;;;;;5063283;28;20282;-64
2020/12/08 08:00:57;;;;;;;27.00;19.93;;;4.80;99.90;;;;;;5058732;28;20585;-64
2020/12/08 08:03:23;;;;;;;29.33;20.63;;;4.80;99.90;;;;;;5046505;28;20173;-68
2020/12/08 08:05:48;;;;;;;22.07;14.07;;;4.80;99.90;;;;;;5032913;28;20167;-66
2020/12/08 08:08:14;;;;;;;14.73;11.13;;;4.80;99.90;;;;;;5051577;28;20199;-67
2020/12/08 08:10:39;;;;;;;28.20;17.97;;;4.80;99.90;;;;;;5061809;28;20316;-67
2020/12/08 08:13:05;;;;;;;30.03;18.70;;;4.80;99.90;;;;;;5061693;28;20546;-67
2020/12/08 10:02:38;;;;;;;30.13;19.93;;;4.80;99.90;;;;;;5080712;27;20289;-64
2020/12/08 10:05:04;;;;;;;31.43;21.73;;;4.80;99.90;;;;;;5079286;28;20575;-64
2020/12/08 10:07:30;;;;;;;29.83;19.20;;;4.80;99.90;;;;;;5084697;28;20177;-64
2020/12/08 10:09:55;;;;;;;28.43;19.63;;;4.80;99.90;;;;;;5084482;28;20230;-65
2020/12/08 10:12:21;;;;;;;32.10;20.67;;;4.80;99.90;;;;;;5085148;28;20238;-65
2020/12/08 10:14:47;;;;;;;32.63;20.80;;;4.80;99.90;;;;;;5100736;22;20335;-65
2020/12/08 10:17:14;;;;;;;29.37;19.37;;;4.90;99.90;;;;;;5061760;28;20260;-65
2020/12/08 10:19:44;;;;;;;32.83;21.37;;;5.00;99.90;;;;;;5063381;28;20671;-67
2020/12/08 10:22:12;;;;;;;31.70;20.30;;;5.10;99.90;;;;;;5063881;28;20211;-67
2020/12/08 10:24:38;;;;;;;22.07;15.43;;;5.20;99.90;;;;;;5064353;28;20242;-67
2020/12/08 10:27:05;;;;;;;28.97;19.10;;;5.30;99.90;;;;;;5046064;28;20179;-67
2020/12/08 10:29:32;;;;;;;29.03;19.53;;;5.40;99.90;;;;;;5063873;28;20219;-66
2020/12/08 10:31:58;;;;;;;23.27;16.83;;;5.30;99.90;;;;;;5064538;28;20196;-67
2020/12/08 10:34:23;;;;;;;35.00;23.43;;;5.40;99.90;;;;;;5063332;28;20197;-66
2020/12/08 10:36:49;;;;;;;25.50;18.17;;;5.40;99.90;;;;;;5061931;28;20199;-64
2020/12/08 10:39:14;;;;;;;30.97;17.80;;;5.40;99.90;;;;;;5063147;28;20174;-63
2020/12/08 10:41:41;;;;;;;32.07;23.20;;;5.30;99.90;;;;;;5062071;28;20219;-65
2020/12/08 10:44:07;;;;;;;32.73;22.73;;;5.20;99.90;;;;;;5062504;28;20178;-66
2020/12/08 10:46:37;;;;;;;35.37;25.47;;;5.20;99.90;;;;;;5062267;28;20591;-64
2020/12/08 10:49:04;;;;;;;36.47;24.53;;;5.20;99.90;;;;;;5063251;28;20215;-65
2020/12/08 10:51:30;;;;;;;19.13;12.83;;;5.30;99.90;;;;;;5062823;28;20173;-65
2020/12/08 10:53:56;;;;;;;26.70;17.70;;;5.30;99.90;;;;;;5063445;28;20496;-66
2020/12/08 10:56:22;;;;;;;24.53;18.80;;;5.30;99.90;;;;;;5062593;28;20200;-64
2020/12/08 10:58:49;;;;;;;34.00;23.07;;;5.30;99.90;;;;;;5063665;28;20169;-65
2020/12/08 11:01:19;;;;;;;23.00;15.03;;;5.30;99.90;;;;;;5063234;28;20262;-65
2020/12/08 11:03:45;;;;;;;31.93;23.40;;;5.20;99.90;;;;;;5063542;28;20391;-65
2020/12/08 11:06:17;;;;;;;35.87;21.83;;;5.20;99.90;;;;;;5062666;28;20225;-65
2020/12/08 11:08:42;;;;;;;33.97;25.13;;;5.30;99.90;;;;;;5063477;28;20181;-65
2020/12/08 11:11:08;;;;;;;38.50;26.73;;;5.40;99.90;;;;;;5063317;28;20200;-64
2020/12/08 11:13:33;;;;;;;36.53;26.37;;;5.40;99.90;;;;;;5052863;28;20181;-64
2020/12/08 11:15:59;;;;;;;33.33;23.97;;;5.40;99.90;;;;;;5047877;28;20225;-64
2020/12/08 11:18:24;;;;;;;33.60;22.77;;;5.30;99.90;;;;;;5049669;28;20550;-65
2020/12/08 11:20:50;;;;;;;32.90;22.40;;;5.30;99.90;;;;;;5049683;28;20221;-68
2020/12/08 15:04:49;;;;;;;51.37;28.40;;;4.10;99.90;;;;;;5078496;27;20813;-72
2020/12/08 15:07:15;;;;;;;51.07;30.13;;;4.00;99.90;;;;;;5066537;28;20179;-73
2020/12/08 15:09:41;;;;;;;59.90;34.90;;;4.00;99.90;;;;;;5067711;28;20201;-66
2020/12/08 15:12:06;;;;;;;53.80;31.60;;;4.00;99.90;;;;;;5067431;28;20567;-65
2020/12/08 15:14:32;;;;;;;56.50;32.17;;;4.10;99.90;;;;;;5067556;28;20227;-66
2020/12/08 15:16:57;;;;;;;49.30;29.90;;;4.00;99.90;;;;;;5072062;22;20237;-64
2020/12/08 15:19:23;;;;;;;46.83;25.97;;;4.00;99.90;;;;;;5047637;28;20173;-64
2020/12/08 15:21:48;;;;;;;39.57;23.03;;;4.00;99.90;;;;;;5047564;28;20245;-64
2020/12/08 15:24:14;;;;;;;49.97;28.77;;;3.90;99.90;;;;;;5047649;28;20201;-64
2020/12/08 15:26:41;;;;;;;55.30;31.10;;;4.00;99.90;;;;;;5047915;28;20606;-65
2020/12/08 15:29:07;;;;;;;56.30;34.23;;;4.00;99.90;;;;;;5047126;28;20174;-65
2020/12/08 15:31:34;;;;;;;33.33;19.93;;;4.00;99.90;;;;;;5048020;28;20689;-65
2020/12/08 15:34:00;;;;;;;58.30;32.60;;;4.00;99.90;;;;;;5047315;28;20181;-64
2020/12/08 15:36:26;;;;;;;51.73;31.97;;;4.00;99.90;;;;;;5047435;28;20606;-64
2020/12/08 15:38:51;;;;;;;40.70;24.30;;;3.90;99.90;;;;;;5047420;28;20181;-64
2020/12/08 15:41:18;;;;;;;51.93;32.03;;;4.00;99.90;;;;;;5047095;28;20222;-64
2020/12/08 15:43:44;;;;;;;49.50;28.93;;;3.90;99.90;;;;;;5047511;28;20566;-64
2020/12/08 15:46:10;;;;;;;56.83;33.97;;;3.90;99.90;;;;;;5047398;28;20181;-64
2020/12/08 15:48:36;;;;;;;52.83;32.03;;;4.00;99.90;;;;;;5047236;28;20181;-64
2020/12/08 15:51:01;;;;;;;50.27;31.27;;;4.00;99.90;;;;;;5029276;28;20174;-64
2020/12/08 15:53:27;;;;;;;29.30;18.10;;;3.90;99.90;;;;;;5047274;28;20181;-64
2020/12/08 15:55:52;;;;;;;54.63;33.07;;;3.90;99.90;;;;;;5046044;28;20202;-64
2020/12/08 15:58:18;;;;;;;53.17;32.60;;;3.90;99.90;;;;;;5045631;28;20470;-67
2020/12/08 16:00:44;;;;;;;33.87;21.03;;;4.00;99.90;;;;;;5046542;28;20185;-66
2020/12/08 16:03:09;;;;;;;34.70;18.27;;;3.90;99.90;;;;;;5046740;28;20217;-66
2020/12/08 16:05:35;;;;;;;54.23;32.83;;;3.90;99.90;;;;;;5041873;28;20236;-64
2020/12/08 16:08:02;;;;;;;41.87;22.03;;;3.80;99.90;;;;;;5044187;28;20178;-66
2020/12/08 16:10:27;;;;;;;52.93;31.83;;;3.80;99.90;;;;;;5042623;28;20618;-66
2020/12/08 16:12:53;;;;;;;55.97;33.67;;;3.80;99.90;;;;;;5029554;28;20185;-66
2020/12/08 16:15:18;;;;;;;54.33;33.93;;;3.80;99.90;;;;;;5021778;28;20581;-66
2020/12/08 16:17:44;;;;;;;48.20;30.63;;;3.80;99.90;;;;;;5034459;28;20193;-66
2020/12/08 16:20:12;;;;;;;55.10;32.90;;;3.80;99.90;;;;;;5033281;28;20171;-67
2020/12/08 16:22:41;;;;;;;65.53;42.07;;;3.80;99.90;;;;;;5032924;28;20201;-67
2020/12/08 16:25:07;;;;;;;36.53;24.10;;;3.80;99.90;;;;;;5032818;28;20228;-67
2020/12/08 16:27:33;;;;;;;51.97;30.60;;;3.80;99.90;;;;;;5029437;28;20325;-66
2020/12/08 16:29:59;;;;;;;55.43;38.00;;;3.70;99.90;;;;;;5020711;28;20262;-67
2020/12/08 16:32:24;;;;;;;54.33;33.53;;;3.70;99.90;;;;;;5032558;28;20161;-67
2020/12/08 16:34:50;;;;;;;61.97;37.27;;;3.80;99.90;;;;;;5032766;28;20630;-67
2020/12/08 16:37:21;;;;;;;48.93;29.37;;;3.80;99.90;;;;;;5032880;28;20190;-66
2020/12/08 16:39:46;;;;;;;55.47;34.03;;;3.70;99.90;;;;;;5025090;28;20183;-67
2020/12/08 16:42:12;;;;;;;43.57;24.33;;;3.70;99.90;;;;;;5021988;28;20206;-67
2020/12/08 16:44:37;;;;;;;52.30;31.03;;;3.80;99.90;;;;;;5012930;28;20620;-66
2020/12/08 16:47:03;;;;;;;54.80;32.97;;;3.80;99.90;;;;;;5029936;28;20309;-67
2020/12/08 16:49:28;;;;;;;41.63;27.03;;;3.70;99.90;;;;;;5032779;28;20175;-67
2020/12/08 16:51:54;;;;;;;44.63;26.20;;;3.70;99.90;;;;;;5032411;28;20167;-67
2020/12/08 16:54:19;;;;;;;57.80;34.07;;;3.70;99.90;;;;;;5032715;28;20174;-67
2020/12/08 16:56:45;;;;;;;46.63;28.27;;;3.70;99.90;;;;;;5032559;28;20229;-67
2020/12/08 16:59:10;;;;;;;52.90;33.13;;;3.70;99.90;;;;;;5024058;28;20614;-63
2020/12/08 17:01:37;;;;;;;55.80;33.17;;;3.80;99.90;;;;;;5031962;28;20188;-66
2020/12/08 17:04:04;;;;;;;55.50;33.73;;;3.80;99.90;;;;;;5026298;28;20206;-68
2020/12/08 17:06:30;;;;;;;54.40;33.50;;;3.80;99.90;;;;;;5017886;28;20230;-67
2020/12/08 17:08:55;;;;;;;39.97;24.57;;;3.80;99.90;;;;;;5014315;28;20199;-67
2020/12/08 17:11:21;;;;;;;51.80;32.53;;;3.70;99.90;;;;;;5033286;28;20178;-66
2020/12/08 17:13:48;;;;;;;54.17;33.60;;;3.70;99.90;;;;;;5011705;28;20186;-66
2020/12/08 17:16:14;;;;;;;49.23;29.40;;;3.70;99.90;;;;;;5030265;28;20275;-66
2020/12/08 17:18:39;;;;;;;56.77;33.03;;;3.70;99.90;;;;;;5030064;28;20651;-66
2020/12/08 17:21:05;;;;;;;39.37;21.30;;;3.60;99.90;;;;;;5031961;28;20185;-67
2020/12/08 17:23:30;;;;;;;52.97;30.13;;;3.60;99.90;;;;;;5031180;28;20289;-66
2020/12/08 17:25:56;;;;;;;49.77;30.93;;;3.60;99.90;;;;;;5024617;28;20563;-62
2020/12/08 17:28:22;;;;;;;51.07;31.13;;;3.60;99.90;;;;;;5027729;28;20694;-63
2020/12/08 17:30:48;;;;;;;32.67;18.10;;;3.60;99.90;;;;;;5029611;28;20824;-65
2020/12/08 17:33:14;;;;;;;47.00;26.13;;;3.60;99.90;;;;;;5028761;28;20178;-65
2020/12/08 17:35:39;;;;;;;43.53;23.23;;;3.60;99.90;;;;;;5029311;28;20198;-64
2020/12/08 17:38:05;;;;;;;51.67;30.47;;;3.60;99.90;;;;;;5027755;28;20186;-64
2020/12/08 17:40:30;;;;;;;24.50;14.37;;;3.60;99.90;;;;;;5028098;28;20787;-64
2020/12/08 17:42:56;;;;;;;48.43;28.17;;;3.60;99.90;;;;;;5026871;28;20569;-64
2020/12/08 17:45:22;;;;;;;51.70;30.83;;;3.60;99.90;;;;;;5030055;28;20190;-64
2020/12/08 17:47:48;;;;;;;49.97;30.20;;;3.60;99.90;;;;;;5030325;28;20162;-65
2020/12/08 17:50:16;;;;;;;44.13;25.40;;;3.60;99.90;;;;;;5030316;28;20681;-65
2020/12/08 17:52:42;;;;;;;54.53;34.27;;;3.50;99.90;;;;;;5029169;28;20182;-66
2020/12/08 17:55:08;;;;;;;37.27;23.33;;;3.60;99.90;;;;;;5029046;28;20658;-64
2020/12/08 17:57:42;;;;;;;52.53;29.00;;;3.50;99.90;;;;;;5029850;28;20246;-63
2020/12/08 18:00:10;;;;;;;43.07;24.20;;;3.50;99.90;;;;;;5029279;28;20677;-63
2020/12/08 18:02:36;;;;;;;51.00;27.83;;;3.40;99.90;;;;;;5028187;28;20590;-67